Barefoot Bay, Florida
Current Conditions -  °F | °C
As of 10:53 PM on Tuesday 21 Oct 2014 (Local Time) from KVRB Reporting Station
Clear Clear  
Wind Chill: 68°   Ceiling: Unl
Heat Index: 68°   Visibility: 10mi
Dew Point: 66°   Wind: 5mph
Humidity: 93%   Direction: 240°WSW
Pressure: 29.97"   Gusts: NA
Location:  27.8606°N, 80.5442°W
Report Text: KVRB 220253Z 24004KT 10SM CLR 20/19 A2997 RMK AO2 SLP147 T02000189 53011
Loading
Personal Weather Stations






























Interactive Weather Map
Tropical Storm Tracking
New forecast layout! Learn more

10-Day Weather Forecast

Advertisements
Track Severe Weather on mobile